createdAt,value
2023-04-16T00:02:40.986Z,100015.22
2023-04-16T00:05:44.071Z,100015.94
2023-04-16T00:08:46.958Z,100014.97
2023-04-16T00:11:49.878Z,100008.91
2023-04-16T00:14:53.109Z,100016.56
2023-04-16T00:17:56.686Z,100020.34
2023-04-16T00:20:59.802Z,100026.56
2023-04-16T00:24:02.679Z,100025.41
2023-04-16T00:27:06.594Z,100018.66
2023-04-16T00:30:10.048Z,100033.16
2023-04-16T00:33:12.983Z,100031.62
2023-04-16T00:36:16.157Z,100032.63
2023-04-16T00:39:18.813Z,100038.03
2023-04-16T00:42:21.731Z,100041.50
2023-04-16T00:45:24.883Z,100036.87
2023-04-16T00:48:28.393Z,100039.75
2023-04-16T00:51:32.005Z,100036.53
2023-04-16T00:54:35.041Z,100037.69
2023-04-16T00:57:37.687Z,100040.41
2023-04-16T01:00:41.791Z,100031.06
2023-04-16T01:03:47.312Z,100032.56
2023-04-16T01:06:51.267Z,100034.72
2023-04-16T01:09:54.093Z,100029.31
2023-04-16T01:12:57.235Z,100028.59
2023-04-16T01:16:01.234Z,100039.59
2023-04-16T01:19:04.126Z,100033.28
2023-04-16T01:22:06.844Z,100046.12
2023-04-16T01:25:15.636Z,100039.25
2023-04-16T01:28:18.643Z,100047.94
2023-04-16T01:31:21.698Z,100044.50
2023-04-16T01:34:25.483Z,100041.63
2023-04-16T01:37:28.616Z,100045.06
2023-04-16T01:40:31.401Z,100046.22
2023-04-16T01:43:34.923Z,100056.78
2023-04-16T01:46:38.498Z,100054.06
2023-04-16T01:49:44.135Z,100046.59
2023-04-16T01:52:46.943Z,100047.75
2023-04-16T01:55:50.069Z,100048.62
2023-04-16T01:58:53.510Z,100051.88
2023-04-16T02:01:57.129Z,100055.91
2023-04-16T02:05:00.148Z,100057.63
2023-04-16T02:08:02.922Z,100061.03
2023-04-16T02:11:06.219Z,100061.72
2023-04-16T02:14:09.687Z,100052.41
2023-04-16T02:17:12.874Z,100056.31
2023-04-16T02:20:16.149Z,100052.56
2023-04-16T02:23:19.245Z,100050.59
2023-04-16T02:26:21.984Z,100043.59
2023-04-16T02:29:25.166Z,100050.03
2023-04-16T02:32:27.899Z,100054.84
2023-04-16T02:35:30.961Z,100061.25
2023-04-16T02:38:33.668Z,100062.00
2023-04-16T02:41:36.939Z,100064.88
2023-04-16T02:44:39.517Z,100069.53
2023-04-16T02:47:42.559Z,100073.22
2023-04-16T02:50:45.500Z,100083.56
2023-04-16T02:53:48.411Z,100082.13
2023-04-16T02:56:50.981Z,100084.47
2023-04-16T02:59:54.065Z,100089.31
2023-04-16T03:02:56.733Z,100087.16
2023-04-16T03:05:59.837Z,100083.44
2023-04-16T03:09:02.667Z,100087.41
2023-04-16T03:12:06.174Z,100089.19
2023-04-16T03:15:09.148Z,100094.75
2023-04-16T03:18:12.122Z,100102.31
2023-04-16T03:21:14.600Z,100103.69
2023-04-16T03:24:18.472Z,100107.22
2023-04-16T03:27:24.110Z,100113.16
2023-04-16T03:30:27.451Z,100102.22
2023-04-16T03:33:30.453Z,100115.47
2023-04-16T03:36:33.544Z,100110.59
2023-04-16T03:39:36.113Z,100120.34
2023-04-16T03:42:39.055Z,100117.78
2023-04-16T03:45:46.326Z,100128.69
2023-04-16T03:48:49.339Z,100120.91
2023-04-16T03:51:52.033Z,100128.41
2023-04-16T03:54:55.023Z,100131.66
2023-04-16T03:57:58.320Z,100127.56
2023-04-16T04:01:01.346Z,100134.56
2023-04-16T04:04:05.920Z,100130.81
2023-04-16T04:07:08.656Z,100124.16
2023-04-16T04:10:12.100Z,100129.44
2023-04-16T04:13:15.332Z,100140.09
2023-04-16T04:16:18.900Z,100143.44
2023-04-16T04:19:21.850Z,100153.44
2023-04-16T04:22:24.841Z,100158.44
2023-04-16T04:25:28.189Z,100166.28
2023-04-16T04:28:33.427Z,100166.59
2023-04-16T04:31:36.603Z,100174.19
2023-04-16T04:34:39.549Z,100167.09
2023-04-16T04:37:42.643Z,100174.84
2023-04-16T04:40:46.986Z,100183.22
2023-04-16T04:43:50.728Z,100183.59
2023-04-16T04:46:53.831Z,100178.75
2023-04-16T04:49:56.430Z,100179.19
2023-04-16T04:52:59.445Z,100188.81
2023-04-16T04:56:12.104Z,100187.91
2023-04-16T04:59:16.688Z,100195.41
2023-04-16T05:02:20.389Z,100201.81
2023-04-16T05:05:23.602Z,100200.13
2023-04-16T05:08:26.420Z,100193.47
2023-04-16T05:11:30.008Z,100188.09
2023-04-16T05:14:32.828Z,100203.53
2023-04-16T05:17:35.903Z,100216.44
2023-04-16T05:20:38.741Z,100209.81
2023-04-16T05:23:41.599Z,100204.84
2023-04-16T05:26:44.195Z,100216.56
2023-04-16T05:29:47.027Z,100215.53
2023-04-16T05:32:49.764Z,100217.56
2023-04-16T05:35:52.751Z,100217.41
2023-04-16T05:38:55.634Z,100204.62
2023-04-16T05:41:59.233Z,100211.41
2023-04-16T05:45:05.036Z,100218.16
2023-04-16T05:48:12.532Z,100211.03
2023-04-16T05:51:15.125Z,100208.50
2023-04-16T05:54:18.394Z,100204.66
2023-04-16T05:57:20.915Z,100210.72
2023-04-16T06:00:24.004Z,100206.09
2023-04-16T06:03:27.580Z,100221.62
2023-04-16T06:06:30.327Z,100215.09
2023-04-16T06:09:33.267Z,100221.06
2023-04-16T06:12:36.413Z,100221.03
2023-04-16T06:15:39.406Z,100230.41
2023-04-16T06:18:42.516Z,100226.59
2023-04-16T06:21:45.710Z,100223.34
2023-04-16T06:24:48.564Z,100223.00
2023-04-16T06:27:51.475Z,100232.66
2023-04-16T06:30:54.157Z,100238.19
2023-04-16T06:33:57.366Z,100244.41
2023-04-16T06:37:00.047Z,100246.12
2023-04-16T06:40:02.985Z,100252.03
2023-04-16T06:43:06.166Z,100238.19
2023-04-16T06:46:09.226Z,100235.91
2023-04-16T06:49:12.083Z,100243.25
2023-04-16T06:52:15.126Z,100232.81
2023-04-16T06:55:17.822Z,100233.66
2023-04-16T06:58:20.842Z,100230.13
2023-04-16T07:01:23.609Z,100233.75
2023-04-16T07:04:26.614Z,100237.41
2023-04-16T07:07:29.295Z,100247.41
2023-04-16T07:10:32.215Z,100249.88
2023-04-16T07:13:34.804Z,100244.66
2023-04-16T07:16:38.025Z,100251.34
2023-04-16T07:19:41.183Z,100238.59
2023-04-16T07:22:44.465Z,100239.97
2023-04-16T07:25:47.025Z,100242.56
2023-04-16T07:28:49.919Z,100245.44
2023-04-16T07:31:52.573Z,100236.31
2023-04-16T07:34:56.270Z,100242.34
2023-04-16T07:37:59.046Z,100239.19
2023-04-16T07:41:02.351Z,100236.66
2023-04-16T07:44:05.103Z,100246.75
2023-04-16T07:47:08.050Z,100250.59
2023-04-16T07:50:10.987Z,100251.41
2023-04-16T07:53:13.852Z,100253.78
2023-04-16T07:56:16.656Z,100256.59
2023-04-16T07:59:23.574Z,100254.47
2023-04-16T08:02:27.652Z,100259.88
2023-04-16T08:05:30.696Z,100252.50
2023-04-16T08:08:33.271Z,100253.31
2023-04-16T08:11:36.202Z,100252.22
2023-04-16T08:14:39.088Z,100257.97
2023-04-16T08:17:42.346Z,100255.88
2023-04-16T08:20:44.958Z,100261.63
2023-04-16T08:23:47.923Z,100253.41
2023-04-16T08:26:50.458Z,100266.66
2023-04-16T08:29:53.496Z,100261.63
2023-04-16T08:32:56.340Z,100266.63
2023-04-16T08:35:59.300Z,100260.72
2023-04-16T08:39:02.104Z,100265.34
2023-04-16T08:42:06.358Z,100263.66
2023-04-16T08:45:15.981Z,100259.75
2023-04-16T08:48:22.186Z,100262.16
2023-04-16T08:51:27.683Z,100265.47
2023-04-16T08:54:56.920Z,100272.94
2023-04-16T08:58:00.903Z,100273.34
2023-04-16T09:01:04.260Z,100273.34
2023-04-16T09:04:07.640Z,100279.34
2023-04-16T09:07:11.725Z,100289.22
2023-04-16T09:10:15.522Z,100284.94
2023-04-16T09:13:20.809Z,100283.91
2023-04-16T09:16:25.218Z,100280.25
2023-04-16T09:19:28.486Z,100279.00
2023-04-16T09:22:31.244Z,100278.28
2023-04-16T09:25:38.720Z,100292.91
2023-04-16T09:28:42.838Z,100293.78
2023-04-16T09:32:02.761Z,100289.94
2023-04-16T09:35:05.762Z,100280.81
2023-04-16T09:38:08.862Z,100277.87
2023-04-16T09:41:11.511Z,100279.56
2023-04-16T09:44:14.374Z,100277.78
2023-04-16T09:47:17.335Z,100284.50
2023-04-16T09:50:20.832Z,100282.19
2023-04-16T09:53:28.157Z,100286.97
2023-04-16T09:56:31.264Z,100280.75
2023-04-16T09:59:36.537Z,100280.44
2023-04-16T10:02:42.763Z,100270.56
2023-04-16T10:05:46.150Z,100280.97
2023-04-16T10:08:54.041Z,100279.75
2023-04-16T10:11:57.345Z,100280.56
2023-04-16T10:15:00.228Z,100282.53
2023-04-16T10:18:04.695Z,100275.75
2023-04-16T10:21:08.511Z,100268.13
2023-04-16T10:24:12.929Z,100257.31
2023-04-16T10:27:17.360Z,100253.22
2023-04-16T10:30:21.896Z,100251.84
2023-04-16T10:33:36.623Z,100259.06
2023-04-16T10:36:40.356Z,100259.84
2023-04-16T10:39:43.113Z,100265.06
2023-04-16T10:42:55.095Z,100270.47
2023-04-16T10:45:57.937Z,100268.03
2023-04-16T10:49:03.199Z,100259.19
2023-04-16T10:52:12.287Z,100271.63
2023-04-16T10:55:18.068Z,100261.16
2023-04-16T10:58:31.131Z,100260.34
2023-04-16T11:01:36.180Z,100259.94
2023-04-16T11:04:42.811Z,100262.16
2023-04-16T11:07:49.962Z,100256.03
2023-04-16T11:10:53.147Z,100260.66
2023-04-16T11:13:57.233Z,100251.31
2023-04-16T11:17:03.948Z,100259.62
2023-04-16T11:20:19.300Z,100247.41
2023-04-16T11:23:23.431Z,100254.59
2023-04-16T11:26:28.670Z,100246.44
2023-04-16T11:29:31.506Z,100246.56
2023-04-16T11:32:36.202Z,100236.66
2023-04-16T11:35:40.077Z,100246.87
2023-04-16T11:38:43.311Z,100243.63
2023-04-16T11:41:47.680Z,100240.66
2023-04-16T11:44:57.888Z,100230.19
2023-04-16T11:48:00.735Z,100228.69
2023-04-16T11:51:03.771Z,100231.97
2023-04-16T11:54:08.454Z,100227.56
2023-04-16T11:57:13.550Z,100237.56
2023-04-16T12:00:16.765Z,100233.44
2023-04-16T12:03:37.600Z,100226.31
2023-04-16T12:06:40.296Z,100222.69
2023-04-16T12:09:44.128Z,100229.56
2023-04-16T12:12:47.198Z,100220.84
2023-04-16T12:15:52.093Z,100218.19
2023-04-16T12:19:04.713Z,100219.81
2023-04-16T12:22:07.585Z,100217.69
2023-04-16T12:25:15.667Z,100213.66
2023-04-16T12:28:47.954Z,100212.50
2023-04-16T12:31:52.120Z,100206.16
2023-04-16T12:34:55.031Z,100205.75
2023-04-16T12:37:57.910Z,100200.13
2023-04-16T12:41:02.401Z,100194.75
2023-04-16T12:44:12.086Z,100196.25
2023-04-16T12:47:15.299Z,100193.31
2023-04-16T12:50:18.571Z,100192.56
2023-04-16T12:53:21.453Z,100187.62
2023-04-16T12:56:24.081Z,100186.56
2023-04-16T12:59:27.002Z,100186.09
2023-04-16T13:02:29.769Z,100182.75
2023-04-16T13:05:32.709Z,100193.44
2023-04-16T13:08:36.275Z,100183.50
2023-04-16T13:11:39.262Z,100167.13
2023-04-16T13:14:43.347Z,100174.38
2023-04-16T13:17:48.124Z,100168.34
2023-04-16T13:20:51.033Z,100171.53
2023-04-16T13:23:54.597Z,100172.41
2023-04-16T13:26:57.573Z,100168.81
2023-04-16T13:30:00.751Z,100172.75
2023-04-16T13:33:03.663Z,100169.84
2023-04-16T13:36:07.317Z,100160.44
2023-04-16T13:39:13.871Z,100167.03
2023-04-16T13:42:18.186Z,100169.63
2023-04-16T13:45:21.177Z,100167.47
2023-04-16T13:48:24.110Z,100169.09
2023-04-16T13:51:27.861Z,100170.66
2023-04-16T13:54:31.151Z,100174.97
2023-04-16T13:57:34.473Z,100171.81
2023-04-16T14:00:38.394Z,100160.81
2023-04-16T14:03:42.546Z,100175.44
2023-04-16T14:06:45.920Z,100174.72
2023-04-16T14:09:49.086Z,100173.13
2023-04-16T14:12:52.358Z,100170.59
2023-04-16T14:15:57.164Z,100165.03
2023-04-16T14:19:00.201Z,100168.25
2023-04-16T14:22:03.852Z,100167.56
2023-04-16T14:25:07.341Z,100159.28
2023-04-16T14:28:12.601Z,100163.56
2023-04-16T14:31:19.283Z,100159.09
2023-04-16T14:34:22.429Z,100163.94
2023-04-16T14:37:26.420Z,100153.31
2023-04-16T14:40:29.617Z,100156.44
2023-04-16T14:43:32.594Z,100161.34
2023-04-16T14:46:36.365Z,100154.94
2023-04-16T14:49:39.310Z,100152.37
2023-04-16T14:52:42.415Z,100157.41
2023-04-16T14:55:45.250Z,100149.09
2023-04-16T14:58:48.879Z,100154.41
2023-04-16T15:01:52.059Z,100156.53
2023-04-16T15:04:55.008Z,100150.69
2023-04-16T15:07:58.212Z,100147.88
2023-04-16T15:11:01.711Z,100148.03
2023-04-16T15:14:04.478Z,100151.28
2023-04-16T15:17:07.884Z,100148.44
2023-04-16T15:20:11.316Z,100140.94
2023-04-16T15:23:14.666Z,100149.72
2023-04-16T15:26:18.158Z,100147.97
2023-04-16T15:29:21.702Z,100149.91
2023-04-16T15:32:25.936Z,100159.25
2023-04-16T15:35:29.314Z,100157.78
2023-04-16T15:38:32.437Z,100150.53
2023-04-16T15:41:57.558Z,100155.31
2023-04-16T15:45:04.241Z,100164.94
2023-04-16T15:48:12.889Z,100164.72
2023-04-16T15:51:17.124Z,100171.53
2023-04-16T15:54:20.719Z,100170.41
2023-04-16T15:57:23.718Z,100173.59
2023-04-16T16:00:28.448Z,100176.47
2023-04-16T16:03:34.320Z,100177.28
2023-04-16T16:06:38.338Z,100178.88
2023-04-16T16:09:42.396Z,100178.91
2023-04-16T16:12:45.583Z,100179.69
2023-04-16T16:15:50.920Z,100172.50
2023-04-16T16:18:54.474Z,100180.50
2023-04-16T16:21:58.311Z,100180.44
2023-04-16T16:25:02.231Z,100181.62
2023-04-16T16:28:06.842Z,100180.44
2023-04-16T16:31:10.336Z,100181.22
2023-04-16T16:34:20.463Z,100186.78
2023-04-16T16:37:24.542Z,100185.97
2023-04-16T16:40:30.240Z,100177.22
2023-04-16T16:43:33.801Z,100183.16
2023-04-16T16:46:37.887Z,100187.53
2023-04-16T16:49:41.659Z,100185.13
2023-04-16T16:52:45.734Z,100182.72
2023-04-16T16:55:51.754Z,100186.66
2023-04-16T16:58:55.951Z,100197.78
2023-04-16T17:01:59.239Z,100196.56
2023-04-16T17:05:03.352Z,100193.75
2023-04-16T17:08:07.557Z,100198.53
2023-04-16T17:11:13.429Z,100196.94
2023-04-16T17:14:16.986Z,100208.81
2023-04-16T17:17:21.584Z,100206.81
2023-04-16T17:20:25.079Z,100211.16
2023-04-16T17:23:28.584Z,100203.53
2023-04-16T17:26:32.704Z,100212.63
2023-04-16T17:29:36.532Z,100211.00
2023-04-16T17:32:40.189Z,100210.53
2023-04-16T17:35:44.524Z,100206.50
2023-04-16T17:38:48.077Z,100210.84
2023-04-16T17:41:55.347Z,100215.56
2023-04-16T17:44:58.876Z,100215.53
2023-04-16T17:48:02.717Z,100216.31
2023-04-16T17:51:13.049Z,100217.81
2023-04-16T17:54:16.487Z,100221.00
2023-04-16T17:57:21.018Z,100220.22
2023-04-16T18:00:24.813Z,100222.63
2023-04-16T18:03:28.350Z,100215.47
2023-04-16T18:06:32.241Z,100230.16
2023-04-16T18:09:37.006Z,100233.00
2023-04-16T18:12:40.697Z,100240.97
2023-04-16T18:15:44.590Z,100240.63
2023-04-16T18:18:49.670Z,100241.81
2023-04-16T18:21:54.209Z,100243.50
2023-04-16T18:24:58.320Z,100253.06
2023-04-16T18:28:04.369Z,100257.03
2023-04-16T18:31:08.412Z,100259.41
2023-04-16T18:34:12.558Z,100259.41
2023-04-16T18:37:16.803Z,100263.03
2023-04-16T18:40:20.125Z,100257.44
2023-04-16T18:43:27.919Z,100251.03
2023-04-16T18:46:31.380Z,100254.50
2023-04-16T18:49:37.466Z,100248.84
2023-04-16T18:52:41.190Z,100246.03
2023-04-16T18:55:46.979Z,100249.50
2023-04-16T18:58:52.288Z,100253.47
2023-04-16T19:01:55.702Z,100261.37
2023-04-16T19:05:00.213Z,100264.94
2023-04-16T19:08:03.632Z,100272.22
2023-04-16T19:11:07.334Z,100271.66
2023-04-16T19:14:11.508Z,100275.22
2023-04-16T19:17:16.188Z,100283.34
2023-04-16T19:20:21.538Z,100275.00
2023-04-16T19:23:25.830Z,100279.41
2023-04-16T19:26:28.889Z,100277.84
2023-04-16T19:29:35.997Z,100267.81
2023-04-16T19:32:39.651Z,100265.00
2023-04-16T19:35:44.007Z,100254.69
2023-04-16T19:38:48.541Z,100247.53
2023-04-16T19:41:52.030Z,100252.72
2023-04-16T19:44:55.586Z,100254.31
2023-04-16T19:47:59.157Z,100250.06
2023-04-16T19:51:06.553Z,100256.19
2023-04-16T19:54:10.007Z,100255.78
2023-04-16T19:57:13.307Z,100253.03
2023-04-16T20:00:17.722Z,100256.25
2023-04-16T20:03:21.367Z,100250.06
2023-04-16T20:06:25.887Z,100260.38
2023-04-16T20:09:29.929Z,100263.59
2023-04-16T20:12:35.097Z,100266.31
2023-04-16T20:15:38.973Z,100260.87
2023-04-16T20:18:42.863Z,100251.44
2023-04-16T20:21:47.026Z,100259.41
2023-04-16T20:24:52.653Z,100267.47
2023-04-16T20:27:55.883Z,100268.84
2023-04-16T20:30:59.203Z,100264.47
2023-04-16T20:34:02.382Z,100268.38
2023-04-16T20:37:05.583Z,100268.63
2023-04-16T20:40:10.046Z,100266.25
2023-04-16T20:43:17.104Z,100264.47
2023-04-16T20:46:24.502Z,100260.91
2023-04-16T20:49:27.346Z,100262.31
2023-04-16T20:52:30.310Z,100253.34
2023-04-16T20:55:32.957Z,100261.16
2023-04-16T20:58:36.138Z,100255.16
2023-04-16T21:01:38.647Z,100257.78
2023-04-16T21:04:41.876Z,100257.06
2023-04-16T21:07:44.542Z,100257.03
2023-04-16T21:10:47.624Z,100258.91
2023-04-16T21:13:50.337Z,100251.03
2023-04-16T21:16:53.410Z,100251.25
2023-04-16T21:19:56.017Z,100255.09
2023-04-16T21:22:59.276Z,100251.19
2023-04-16T21:26:01.873Z,100254.41
2023-04-16T21:29:04.743Z,100259.00
2023-04-16T21:32:07.383Z,100260.13
2023-04-16T21:35:10.558Z,100253.47
2023-04-16T21:38:13.140Z,100255.06
2023-04-16T21:41:16.770Z,100251.91
2023-04-16T21:44:19.389Z,100257.81
2023-04-16T21:47:22.331Z,100260.34
2023-04-16T21:50:25.013Z,100247.53
2023-04-16T21:53:32.203Z,100247.31
2023-04-16T21:56:34.939Z,100244.81
2023-04-16T21:59:38.606Z,100233.03
2023-04-16T22:02:42.715Z,100231.59
2023-04-16T22:05:46.167Z,100229.81
2023-04-16T22:08:50.106Z,100228.84
2023-04-16T22:11:53.291Z,100238.16
2023-04-16T22:15:02.285Z,100243.41
2023-04-16T22:18:06.594Z,100235.03
2023-04-16T22:21:09.239Z,100246.53
2023-04-16T22:24:12.370Z,100238.31
2023-04-16T22:27:14.966Z,100242.69
2023-04-16T22:30:18.140Z,100232.88
2023-04-16T22:33:20.955Z,100238.06
2023-04-16T22:36:23.924Z,100248.38
2023-04-16T22:39:28.669Z,100234.75
2023-04-16T22:42:31.798Z,100231.78
2023-04-16T22:45:34.775Z,100222.75
2023-04-16T22:48:38.858Z,100223.41
2023-04-16T22:51:41.367Z,100216.50
2023-04-16T22:54:44.322Z,100221.03
2023-04-16T22:57:47.659Z,100228.38
2023-04-16T23:00:52.125Z,100222.81
2023-04-16T23:03:54.883Z,100210.44
2023-04-16T23:06:57.923Z,100206.47
2023-04-16T23:10:00.766Z,100208.94
2023-04-16T23:13:03.818Z,100200.41
2023-04-16T23:16:07.094Z,100201.19
2023-04-16T23:19:15.079Z,100192.69
2023-04-16T23:22:17.733Z,100196.97
2023-04-16T23:25:22.572Z,100201.84
2023-04-16T23:28:25.338Z,100196.63
2023-04-16T23:31:29.034Z,100190.72
2023-04-16T23:34:31.686Z,100196.19
2023-04-16T23:37:34.774Z,100189.00
2023-04-16T23:40:37.347Z,100186.59
2023-04-16T23:43:40.945Z,100182.03
2023-04-16T23:46:43.648Z,100179.03
2023-04-16T23:49:47.446Z,100187.75
2023-04-16T23:52:50.115Z,100181.84
2023-04-16T23:55:52.974Z,100174.47
2023-04-16T23:58:56.264Z,100183.47
